createdAt,value
2018-03-08T00:00:25.786Z,1.10
2018-03-08T00:02:53.290Z,1.12
2018-03-08T00:05:20.766Z,1.00
2018-03-08T00:07:48.252Z,1.12
2018-03-08T00:10:15.736Z,1.60
2018-03-08T00:12:43.227Z,1.25
2018-03-08T00:15:10.696Z,1.85
2018-03-08T00:17:38.184Z,1.65
2018-03-08T00:20:05.677Z,1.17
2018-03-08T00:22:33.168Z,1.17
2018-03-08T00:25:00.671Z,1.37
2018-03-08T00:27:28.168Z,1.62
2018-03-08T00:29:55.668Z,1.50
2018-03-08T00:32:23.156Z,1.48
2018-03-08T00:34:50.666Z,1.17
2018-03-08T00:37:18.172Z,1.17
2018-03-08T00:39:45.656Z,1.10
2018-03-08T00:42:13.142Z,1.20
2018-03-08T00:44:40.635Z,1.30
2018-03-08T00:47:08.111Z,1.35
2018-03-08T00:49:35.607Z,1.02
2018-03-08T00:52:03.091Z,1.17
2018-03-08T00:54:30.604Z,0.88
2018-03-08T00:56:58.078Z,1.02
2018-03-08T00:59:25.571Z,0.82
2018-03-08T01:01:53.052Z,0.73
2018-03-08T01:04:20.534Z,1.10
2018-03-08T01:06:48.010Z,1.00
2018-03-08T01:09:15.496Z,0.68
2018-03-08T01:11:42.962Z,0.60
2018-03-08T01:14:10.448Z,0.85
2018-03-08T01:16:37.939Z,0.80
2018-03-08T01:19:05.459Z,0.90
2018-03-08T01:21:32.951Z,1.10
2018-03-08T01:24:00.435Z,0.70
2018-03-08T01:26:27.971Z,0.70
2018-03-08T01:28:55.447Z,1.08
2018-03-08T01:31:22.911Z,0.80
2018-03-08T01:33:50.446Z,0.62
2018-03-08T01:36:27.655Z,0.90
2018-03-08T01:38:55.167Z,0.90
2018-03-08T01:41:22.652Z,0.70
2018-03-08T01:43:50.142Z,0.70
2018-03-08T01:46:17.627Z,1.08
2018-03-08T01:48:45.120Z,1.00
2018-03-08T01:51:12.608Z,0.77
2018-03-08T01:53:40.107Z,0.95
2018-03-08T01:56:07.595Z,2.00
2018-03-08T01:58:35.072Z,1.75
2018-03-08T02:01:02.559Z,2.22
2018-03-08T02:03:30.064Z,2.08
2018-03-08T02:05:57.567Z,1.77
2018-03-08T02:08:25.052Z,1.85
2018-03-08T02:10:52.543Z,0.95
2018-03-08T02:13:20.035Z,1.12
2018-03-08T02:15:47.923Z,1.77
2018-03-08T02:18:15.414Z,1.77
2018-03-08T02:20:42.928Z,1.90
2018-03-08T02:23:10.406Z,1.15
2018-03-08T02:25:37.899Z,1.80
2018-03-08T02:28:05.398Z,2.15
2018-03-08T02:30:32.912Z,1.23
2018-03-08T02:33:00.380Z,1.52
2018-03-08T02:35:27.856Z,1.25
2018-03-08T02:37:55.359Z,1.65
2018-03-08T02:40:22.870Z,1.35
2018-03-08T02:42:50.348Z,1.65
2018-03-08T02:45:17.827Z,2.00
2018-03-08T02:47:45.320Z,1.60
2018-03-08T02:50:12.810Z,1.00
2018-03-08T02:52:40.296Z,1.58
2018-03-08T02:55:07.759Z,0.70
2018-03-08T02:57:35.277Z,2.05
2018-03-08T03:00:02.749Z,2.30
2018-03-08T03:02:30.232Z,1.05
2018-03-08T03:04:57.721Z,1.55
2018-03-08T03:07:25.903Z,1.42
2018-03-08T03:09:53.419Z,0.95
2018-03-08T03:12:20.903Z,1.65
2018-03-08T03:14:48.399Z,1.12
2018-03-08T03:17:15.872Z,1.05
2018-03-08T03:19:43.347Z,0.57
2018-03-08T03:22:10.833Z,1.15
2018-03-08T03:24:38.307Z,1.50
2018-03-08T03:27:05.800Z,1.08
2018-03-08T03:29:33.283Z,2.20
2018-03-08T03:32:00.772Z,2.15
2018-03-08T03:34:28.248Z,1.12
2018-03-08T03:36:55.731Z,1.58
2018-03-08T03:39:23.215Z,1.10
2018-03-08T03:41:50.692Z,1.40
2018-03-08T03:44:18.197Z,1.55
2018-03-08T03:46:45.691Z,1.58
2018-03-08T03:49:13.199Z,0.88
2018-03-08T03:51:40.701Z,1.60
2018-03-08T03:54:08.198Z,1.87
2018-03-08T03:56:35.700Z,2.30
2018-03-08T03:59:03.183Z,1.60
2018-03-08T04:01:30.672Z,1.92
2018-03-08T04:03:58.198Z,1.95
2018-03-08T04:06:25.681Z,2.00
2018-03-08T04:08:53.169Z,1.12
2018-03-08T04:11:20.671Z,1.90
2018-03-08T04:13:48.152Z,1.70
2018-03-08T04:16:15.627Z,2.35
2018-03-08T04:18:43.135Z,2.08
2018-03-08T04:21:10.603Z,1.40
2018-03-08T04:23:38.091Z,2.25
2018-03-08T04:26:05.551Z,1.85
2018-03-08T04:28:33.063Z,2.50
2018-03-08T04:31:00.570Z,1.98
2018-03-08T04:33:28.056Z,1.30
2018-03-08T04:35:55.547Z,1.15
2018-03-08T04:38:23.036Z,1.92
2018-03-08T04:40:50.517Z,1.60
2018-03-08T04:43:17.992Z,1.17
2018-03-08T04:45:45.483Z,1.08
2018-03-08T04:48:12.966Z,1.50
2018-03-08T04:50:40.452Z,1.10
2018-03-08T04:53:07.947Z,1.30
2018-03-08T04:55:35.415Z,1.23
2018-03-08T04:58:02.899Z,1.55
2018-03-08T05:00:30.381Z,1.58
2018-03-08T05:02:57.874Z,2.08
2018-03-08T05:08:04.343Z,1.75
2018-03-08T05:10:31.845Z,1.52
2018-03-08T05:12:59.346Z,1.83
2018-03-08T05:15:26.812Z,1.85
2018-03-08T05:17:54.302Z,1.10
2018-03-08T05:20:21.782Z,1.92
2018-03-08T05:22:49.283Z,1.70
2018-03-08T05:25:16.767Z,1.90
2018-03-08T05:27:44.260Z,1.90
2018-03-08T05:30:11.755Z,2.28
2018-03-08T05:32:39.240Z,2.40
2018-03-08T05:35:06.755Z,2.20
2018-03-08T05:37:34.226Z,1.45
2018-03-08T05:40:01.723Z,1.70
2018-03-08T05:42:29.161Z,1.35
2018-03-08T05:44:56.603Z,1.77
2018-03-08T05:47:24.127Z,1.40
2018-03-08T05:49:51.720Z,1.30
2018-03-08T05:52:19.222Z,1.17
2018-03-08T05:54:46.704Z,1.50
2018-03-08T05:57:14.188Z,1.55
2018-03-08T05:59:41.704Z,2.10
2018-03-08T06:02:09.192Z,2.28
2018-03-08T06:04:36.667Z,2.83
2018-03-08T06:07:04.177Z,2.17
2018-03-08T06:09:31.655Z,2.67
2018-03-08T06:11:59.160Z,2.80
2018-03-08T06:14:26.668Z,2.12
2018-03-08T06:16:54.247Z,1.40
2018-03-08T06:19:21.736Z,2.37
2018-03-08T06:21:49.217Z,2.37
2018-03-08T06:24:16.771Z,1.48
2018-03-08T06:26:44.273Z,1.55
2018-03-08T06:29:11.759Z,1.55
2018-03-08T06:31:39.260Z,1.40
2018-03-08T06:34:06.731Z,1.67
2018-03-08T06:36:34.219Z,2.22
2018-03-08T06:39:01.749Z,2.22
2018-03-08T06:41:29.251Z,2.62
2018-03-08T06:43:56.732Z,2.40
2018-03-08T06:46:24.220Z,2.28
2018-03-08T06:48:51.704Z,1.95
2018-03-08T06:51:19.177Z,1.42
2018-03-08T06:53:46.617Z,2.20
2018-03-08T06:56:14.139Z,1.87
2018-03-08T06:58:41.585Z,1.62
2018-03-08T07:01:09.095Z,1.17
2018-03-08T07:03:36.592Z,1.60
2018-03-08T07:06:04.081Z,1.70
2018-03-08T07:08:31.607Z,1.20
2018-03-08T07:10:59.105Z,1.60
2018-03-08T07:13:26.596Z,2.35
2018-03-08T07:15:54.090Z,2.15
2018-03-08T07:18:21.564Z,2.42
2018-03-08T07:20:49.064Z,1.42
2018-03-08T07:23:16.570Z,2.12
2018-03-08T07:25:44.089Z,1.50
2018-03-08T07:28:11.576Z,2.60
2018-03-08T07:30:39.059Z,1.62
2018-03-08T07:33:06.555Z,1.40
2018-03-08T07:35:34.039Z,2.85
2018-03-08T07:38:01.539Z,1.87
2018-03-08T07:40:29.032Z,1.48
2018-03-08T07:42:56.558Z,1.98
2018-03-08T07:45:24.034Z,1.65
2018-03-08T07:47:52.486Z,1.52
2018-03-08T07:50:19.987Z,2.20
2018-03-08T07:52:47.487Z,1.92
2018-03-08T07:55:14.990Z,1.35
2018-03-08T07:57:42.532Z,2.10
2018-03-08T08:00:10.055Z,1.95
2018-03-08T08:02:37.542Z,2.25
2018-03-08T08:05:16.682Z,2.33
2018-03-08T08:07:55.897Z,1.92
2018-03-08T08:10:23.395Z,2.40
2018-03-08T08:12:50.889Z,1.25
2018-03-08T08:15:18.379Z,1.77
2018-03-08T08:17:45.902Z,1.55
2018-03-08T08:20:13.383Z,2.47
2018-03-08T08:22:40.859Z,2.20
2018-03-08T08:25:08.355Z,1.75
2018-03-08T08:27:35.836Z,1.77
2018-03-08T08:30:03.368Z,1.80
2018-03-08T08:32:30.859Z,1.37
2018-03-08T08:34:58.340Z,1.67
2018-03-08T08:37:25.847Z,2.00
2018-03-08T08:39:53.398Z,1.55
2018-03-08T08:42:20.928Z,1.52
2018-03-08T08:44:48.430Z,2.10
2018-03-08T08:47:15.915Z,2.03
2018-03-08T08:49:43.396Z,1.80
2018-03-08T08:52:10.899Z,2.03
2018-03-08T08:54:38.389Z,1.62
2018-03-08T08:57:05.879Z,1.70
2018-03-08T08:59:33.363Z,1.95
2018-03-08T09:02:00.915Z,1.23
2018-03-08T09:04:28.415Z,2.50
2018-03-08T09:06:55.898Z,2.20
2018-03-08T09:09:23.401Z,1.80
2018-03-08T09:11:50.944Z,1.90
2018-03-08T09:14:18.449Z,2.05
2018-03-08T09:16:45.938Z,1.15
2018-03-08T09:19:13.439Z,2.10
2018-03-08T09:21:40.952Z,2.47
2018-03-08T09:24:08.450Z,2.62
2018-03-08T09:26:35.954Z,1.33
2018-03-08T09:29:04.365Z,1.37
2018-03-08T09:31:31.836Z,1.25
2018-03-08T09:33:59.313Z,1.50
2018-03-08T09:36:26.806Z,1.87
2018-03-08T09:38:54.289Z,3.22
2018-03-08T09:41:21.780Z,3.70
2018-03-08T09:43:49.368Z,4.25
2018-03-08T09:46:16.828Z,7.28
2018-03-08T09:48:44.315Z,1.98
2018-03-08T09:51:11.808Z,2.58
2018-03-08T09:53:39.292Z,1.60
2018-03-08T09:56:06.773Z,1.77
2018-03-08T09:58:34.266Z,1.83
2018-03-08T10:01:01.748Z,1.80
2018-03-08T10:03:29.246Z,1.52
2018-03-08T10:05:56.755Z,1.50
2018-03-08T10:08:24.244Z,1.65
2018-03-08T10:10:51.738Z,1.48
2018-03-08T10:16:01.735Z,1.25
2018-03-08T10:18:29.260Z,1.40
2018-03-08T10:20:56.773Z,1.58
2018-03-08T10:23:24.403Z,1.50
2018-03-08T10:25:51.875Z,1.05
2018-03-08T10:28:19.362Z,1.45
2018-03-08T10:30:46.855Z,1.20
2018-03-08T10:33:14.355Z,1.23
2018-03-08T10:35:41.861Z,1.85
2018-03-08T10:38:09.383Z,1.25
2018-03-08T10:40:43.469Z,1.75
2018-03-08T10:43:04.403Z,1.30
2018-03-08T10:45:31.899Z,1.83
2018-03-08T10:47:59.395Z,1.48
2018-03-08T10:50:26.876Z,1.67
2018-03-08T10:52:54.366Z,1.75
2018-03-08T10:55:21.871Z,1.58
2018-03-08T10:57:49.341Z,1.12
2018-03-08T11:00:17.389Z,1.50
2018-03-08T11:02:49.610Z,1.50
2018-03-08T11:05:17.151Z,1.65
2018-03-08T11:10:29.147Z,1.67
2018-03-08T11:12:56.630Z,1.40
2018-03-08T11:15:24.115Z,2.08
2018-03-08T11:17:51.612Z,1.40
2018-03-08T11:20:19.147Z,1.00
2018-03-08T11:22:46.732Z,1.50
2018-03-08T11:25:14.246Z,1.23
2018-03-08T11:27:41.788Z,1.20
2018-03-08T11:30:09.301Z,2.17
2018-03-08T11:32:36.792Z,1.40
2018-03-08T11:35:04.279Z,1.67
2018-03-08T11:37:31.739Z,1.30
2018-03-08T11:39:59.269Z,1.37
2018-03-08T11:42:26.788Z,1.37
2018-03-08T11:44:54.287Z,3.45
2018-03-08T11:47:21.768Z,1.60
2018-03-08T11:49:49.264Z,2.03
2018-03-08T11:52:16.734Z,4.35
2018-03-08T11:54:44.237Z,2.65
2018-03-08T11:57:11.744Z,1.65
2018-03-08T11:59:39.239Z,1.90
2018-03-08T12:02:06.735Z,0.95
2018-03-08T12:04:34.227Z,1.83
2018-03-08T12:07:01.716Z,0.70
2018-03-08T12:09:29.207Z,1.17
2018-03-08T12:11:56.748Z,1.00
2018-03-08T12:14:24.188Z,0.77
2018-03-08T12:16:51.716Z,0.60
2018-03-08T12:19:19.246Z,1.02
2018-03-08T12:21:46.742Z,0.88
2018-03-08T12:24:14.249Z,1.20
2018-03-08T12:26:41.745Z,0.82
2018-03-08T12:29:09.244Z,1.42
2018-03-08T12:31:36.772Z,1.40
2018-03-08T12:34:04.289Z,1.45
2018-03-08T12:36:31.848Z,2.20
2018-03-08T12:38:59.371Z,1.52
2018-03-08T12:41:26.885Z,1.73
2018-03-08T12:43:55.229Z,2.05
2018-03-08T12:46:22.748Z,2.10
2018-03-08T12:48:50.319Z,1.62
2018-03-08T12:51:17.748Z,1.50
2018-03-08T12:53:45.310Z,0.85
2018-03-08T12:56:12.807Z,1.90
2018-03-08T12:58:40.362Z,1.30
2018-03-08T13:01:07.852Z,1.08
2018-03-08T13:03:35.433Z,1.52
2018-03-08T13:06:02.956Z,2.10
2018-03-08T13:08:30.485Z,0.85
2018-03-08T13:10:57.986Z,1.87
2018-03-08T13:13:25.474Z,1.23
2018-03-08T13:15:52.989Z,1.17
2018-03-08T13:18:20.513Z,1.73
2018-03-08T13:20:48.008Z,1.30
2018-03-08T13:23:15.522Z,1.77
2018-03-08T13:25:43.117Z,1.48
2018-03-08T13:28:10.637Z,1.87
2018-03-08T13:30:38.196Z,1.42
2018-03-08T13:33:05.684Z,1.48
2018-03-08T13:35:33.219Z,1.55
2018-03-08T13:38:00.731Z,2.00
2018-03-08T13:40:28.252Z,1.50
2018-03-08T13:42:55.769Z,1.30
2018-03-08T13:45:23.267Z,1.50
2018-03-08T13:47:50.788Z,1.20
2018-03-08T13:50:18.279Z,1.43
2018-03-08T13:52:45.804Z,1.73
2018-03-08T13:55:13.341Z,1.70
2018-03-08T13:57:40.844Z,1.90
2018-03-08T14:00:08.343Z,1.53
2018-03-08T14:02:35.811Z,1.30
2018-03-08T14:05:03.338Z,1.53
2018-03-08T14:07:30.868Z,1.50
2018-03-08T14:09:58.354Z,1.45
2018-03-08T14:12:25.908Z,1.67
2018-03-08T14:14:53.411Z,1.77
2018-03-08T14:17:20.940Z,2.08
2018-03-08T14:19:48.501Z,1.83
2018-03-08T14:22:16.005Z,1.47
2018-03-08T14:24:43.509Z,1.43
2018-03-08T14:27:10.988Z,1.63
2018-03-08T14:29:38.496Z,1.30
2018-03-08T14:32:05.981Z,1.80
2018-03-08T14:34:33.510Z,1.33
2018-03-08T14:37:01.004Z,1.30
2018-03-08T14:39:28.521Z,2.00
2018-03-08T14:41:56.071Z,2.07
2018-03-08T14:44:23.608Z,1.40
2018-03-08T14:46:51.099Z,1.70
2018-03-08T14:49:18.589Z,1.53
2018-03-08T14:51:46.087Z,1.90
2018-03-08T14:54:13.568Z,1.37
2018-03-08T14:56:41.152Z,1.60
2018-03-08T14:59:08.667Z,1.50
2018-03-08T15:01:36.151Z,1.70
2018-03-08T15:04:03.648Z,2.07
2018-03-08T15:06:31.125Z,0.97
2018-03-08T15:08:58.608Z,1.50
2018-03-08T15:11:26.135Z,1.83
2018-03-08T15:13:53.618Z,1.60
2018-03-08T15:16:21.106Z,1.87
2018-03-08T15:18:48.605Z,1.80
2018-03-08T15:21:16.211Z,2.10
2018-03-08T15:23:43.692Z,1.57
2018-03-08T15:26:11.163Z,1.50
2018-03-08T15:28:38.654Z,1.83
2018-03-08T15:31:06.156Z,2.33
2018-03-08T15:33:33.650Z,1.85
2018-03-08T15:36:01.132Z,1.80
2018-03-08T15:38:28.621Z,1.83
2018-03-08T15:40:56.100Z,1.60
2018-03-08T15:43:23.603Z,1.93
2018-03-08T15:45:51.130Z,1.87
2018-03-08T15:48:18.622Z,1.80
2018-03-08T15:50:46.115Z,1.80
2018-03-08T15:53:13.609Z,1.97
2018-03-08T15:55:41.091Z,1.60
2018-03-08T15:58:08.584Z,2.42
2018-03-08T16:00:36.122Z,2.17
2018-03-08T16:03:03.637Z,1.97
2018-03-08T16:05:31.128Z,2.78
2018-03-08T16:11:15.283Z,2.25
2018-03-08T16:13:42.793Z,1.85
2018-03-08T16:16:10.297Z,1.83
2018-03-08T16:18:37.792Z,2.37
2018-03-08T16:21:05.320Z,2.28
2018-03-08T16:23:32.816Z,2.15
2018-03-08T16:26:00.299Z,1.83
2018-03-08T16:28:27.808Z,2.12
2018-03-08T16:30:55.304Z,1.83
2018-03-08T16:33:22.826Z,2.92
2018-03-08T16:35:50.339Z,2.35
2018-03-08T16:38:17.867Z,3.05
2018-03-08T16:40:45.421Z,2.15
2018-03-08T16:43:12.919Z,2.00
2018-03-08T16:45:40.545Z,1.90
2018-03-08T16:48:08.071Z,1.60
2018-03-08T16:50:35.681Z,1.73
2018-03-08T16:53:03.190Z,2.40
2018-03-08T16:55:30.694Z,2.00
2018-03-08T16:57:58.208Z,2.00
2018-03-08T17:00:25.721Z,1.73
2018-03-08T17:02:53.224Z,2.03
2018-03-08T17:05:20.743Z,1.87
2018-03-08T17:07:48.278Z,2.22
2018-03-08T17:10:15.765Z,1.85
2018-03-08T17:12:43.267Z,2.20
2018-03-08T17:15:10.787Z,2.00
2018-03-08T17:17:38.283Z,2.25
2018-03-08T17:20:05.868Z,2.17
2018-03-08T17:22:33.431Z,2.87
2018-03-08T17:25:00.993Z,1.95
2018-03-08T17:27:28.473Z,2.62
2018-03-08T17:29:55.971Z,2.45
2018-03-08T17:32:23.573Z,2.45
2018-03-08T17:34:51.055Z,2.33
2018-03-08T17:37:18.555Z,1.98
2018-03-08T17:39:46.063Z,2.70
2018-03-08T17:42:13.648Z,2.67
2018-03-08T17:44:41.127Z,2.28
2018-03-08T17:47:08.652Z,2.28
2018-03-08T17:49:36.180Z,2.60
2018-03-08T17:52:03.672Z,3.10
2018-03-08T17:54:31.209Z,3.20
2018-03-08T17:56:58.705Z,2.35
2018-03-08T17:59:26.213Z,3.20
2018-03-08T18:01:53.699Z,3.03
2018-03-08T18:04:21.251Z,3.45
2018-03-08T18:06:48.737Z,3.20
2018-03-08T18:09:16.260Z,3.65
2018-03-08T18:11:43.767Z,2.80
2018-03-08T18:14:11.291Z,3.78
2018-03-08T18:16:38.809Z,4.15
2018-03-08T18:19:06.843Z,3.87
2018-03-08T18:21:34.344Z,3.28
2018-03-08T18:24:01.870Z,3.42
2018-03-08T18:26:29.887Z,3.47
2018-03-08T18:28:57.520Z,7.87
2018-03-08T18:31:25.188Z,5.28
2018-03-08T18:33:52.700Z,4.68
2018-03-08T18:36:20.232Z,4.20
2018-03-08T18:38:47.750Z,5.50
2018-03-08T18:41:15.320Z,10.85
2018-03-08T18:43:43.798Z,9.77
2018-03-08T18:46:11.307Z,15.40
2018-03-08T18:48:38.814Z,6.03
2018-03-08T18:51:06.326Z,11.30
2018-03-08T18:53:33.908Z,7.07
2018-03-08T18:56:01.440Z,6.50
2018-03-08T18:58:28.987Z,8.20
2018-03-08T19:00:56.479Z,6.75
2018-03-08T19:03:23.968Z,5.82
2018-03-08T19:05:51.480Z,5.40
2018-03-08T19:08:18.996Z,4.75
2018-03-08T19:10:46.512Z,4.53
2018-03-08T19:13:14.000Z,3.78
2018-03-08T19:15:41.601Z,4.30
2018-03-08T19:18:08.962Z,3.53
2018-03-08T19:20:36.491Z,3.55
2018-03-08T19:23:03.998Z,3.35
2018-03-08T19:25:31.508Z,3.35
2018-03-08T19:27:59.000Z,2.45
2018-03-08T19:30:26.499Z,3.37
2018-03-08T19:32:54.023Z,2.92
2018-03-08T19:35:21.526Z,5.93
2018-03-08T19:37:49.076Z,3.67
2018-03-08T19:40:16.572Z,3.40
2018-03-08T19:42:44.079Z,2.85
2018-03-08T19:45:11.583Z,3.53
2018-03-08T19:47:39.062Z,2.95
2018-03-08T19:50:06.615Z,2.75
2018-03-08T19:52:34.132Z,3.20
2018-03-08T19:55:01.627Z,3.42
2018-03-08T19:57:29.139Z,3.87
2018-03-08T19:59:56.655Z,3.47
2018-03-08T20:02:24.185Z,3.78
2018-03-08T20:04:51.699Z,4.00
2018-03-08T20:07:19.198Z,3.60
2018-03-08T20:09:46.728Z,3.53
2018-03-08T20:12:14.233Z,4.32
2018-03-08T20:14:41.729Z,3.83
2018-03-08T20:17:09.273Z,4.32
2018-03-08T20:19:36.776Z,4.75
2018-03-08T20:22:04.308Z,3.35
2018-03-08T20:24:31.823Z,4.22
2018-03-08T20:26:59.304Z,4.03
2018-03-08T20:29:26.865Z,3.83
2018-03-08T20:31:55.155Z,6.78
2018-03-08T20:36:56.180Z,13.48
2018-03-08T20:39:23.707Z,10.77
2018-03-08T20:41:51.211Z,14.05
2018-03-08T20:44:18.732Z,17.77
2018-03-08T20:46:46.299Z,10.20
2018-03-08T20:49:13.789Z,6.70
2018-03-08T20:51:41.286Z,8.75
2018-03-08T20:54:08.816Z,15.35
2018-03-08T20:56:36.326Z,13.07
2018-03-08T20:59:03.827Z,8.57
2018-03-08T21:01:31.355Z,7.43
2018-03-08T21:03:58.859Z,9.98
2018-03-08T21:06:26.367Z,11.45
2018-03-08T21:08:53.983Z,10.90
2018-03-08T21:11:21.491Z,8.88
2018-03-08T21:13:48.994Z,7.10
2018-03-08T21:16:16.499Z,7.20
2018-03-08T21:18:43.990Z,4.40
2018-03-08T21:21:11.508Z,4.87
2018-03-08T21:23:39.030Z,11.75
2018-03-08T21:26:06.531Z,13.70
2018-03-08T21:28:34.047Z,18.27
2018-03-08T21:31:01.549Z,30.27
2018-03-08T21:33:29.085Z,30.17
2018-03-08T21:35:57.291Z,29.00
2018-03-08T21:38:24.814Z,28.48
2018-03-08T21:40:52.311Z,27.60
2018-03-08T21:43:19.824Z,13.10
2018-03-08T21:45:47.321Z,10.30
2018-03-08T21:48:14.812Z,11.25
2018-03-08T21:50:42.329Z,6.60
2018-03-08T21:53:09.843Z,6.78
2018-03-08T21:55:37.318Z,7.35
2018-03-08T21:58:04.810Z,6.82
2018-03-08T22:00:32.316Z,6.12
2018-03-08T22:02:59.824Z,4.30
2018-03-08T22:05:27.314Z,4.40
2018-03-08T22:07:54.832Z,4.40
2018-03-08T22:10:22.322Z,3.12
2018-03-08T22:12:49.839Z,3.35
2018-03-08T22:15:17.371Z,3.87
2018-03-08T22:17:44.921Z,3.50
2018-03-08T22:20:12.403Z,3.42
2018-03-08T22:22:39.906Z,3.78
2018-03-08T22:25:07.477Z,4.80
2018-03-08T22:27:34.986Z,3.35
2018-03-08T22:30:02.534Z,6.03
2018-03-08T22:32:30.076Z,4.68
2018-03-08T22:34:57.582Z,5.10
2018-03-08T22:37:25.088Z,4.72
2018-03-08T22:39:52.588Z,5.05
2018-03-08T22:42:20.097Z,4.75
2018-03-08T22:44:47.629Z,4.00
2018-03-08T22:47:15.143Z,4.00
2018-03-08T22:49:42.662Z,3.92
2018-03-08T22:52:10.169Z,3.12
2018-03-08T22:54:37.681Z,3.22
2018-03-08T22:57:05.174Z,2.90
2018-03-08T22:59:32.681Z,2.55
2018-03-08T23:02:15.079Z,3.42
2018-03-08T23:04:42.580Z,3.20
2018-03-08T23:07:10.067Z,3.62
2018-03-08T23:09:37.550Z,2.97
2018-03-08T23:12:05.071Z,3.10
2018-03-08T23:14:32.571Z,3.22
2018-03-08T23:17:00.058Z,2.95
2018-03-08T23:19:27.573Z,3.22
2018-03-08T23:21:55.078Z,3.30
2018-03-08T23:24:22.587Z,2.85
2018-03-08T23:26:50.079Z,3.15
2018-03-08T23:29:17.581Z,3.40
2018-03-08T23:31:45.091Z,2.95
2018-03-08T23:34:12.590Z,2.70
2018-03-08T23:36:40.112Z,3.35
2018-03-08T23:39:07.641Z,2.72
2018-03-08T23:41:35.164Z,2.90
2018-03-08T23:44:02.663Z,2.65
2018-03-08T23:46:30.215Z,3.20
2018-03-08T23:48:57.700Z,2.85
2018-03-08T23:51:25.215Z,3.10
2018-03-08T23:53:52.736Z,2.95
2018-03-08T23:56:20.231Z,3.00
2018-03-08T23:58:47.744Z,3.65
